createdAt,value
2023-05-04T00:02:13.674Z,101293.06
2023-05-04T00:04:43.163Z,101296.38
2023-05-04T00:07:11.182Z,101292.34
2023-05-04T00:09:39.586Z,101294.88
2023-05-04T00:12:08.308Z,101281.97
2023-05-04T00:14:37.417Z,101295.78
2023-05-04T00:17:07.039Z,101289.25
2023-05-04T00:19:36.453Z,101284.63
2023-05-04T00:22:04.459Z,101287.41
2023-05-04T00:24:32.774Z,101285.81
2023-05-04T00:27:00.711Z,101275.28
2023-05-04T00:29:29.044Z,101283.84
2023-05-04T00:31:57.255Z,101274.84
2023-05-04T00:34:25.912Z,101272.75
2023-05-04T00:36:53.856Z,101276.16
2023-05-04T00:39:22.240Z,101270.56
2023-05-04T00:41:50.688Z,101263.56
2023-05-04T00:44:19.177Z,101269.94
2023-05-04T00:46:47.237Z,101272.91
2023-05-04T00:49:16.011Z,101267.34
2023-05-04T00:51:44.194Z,101266.88
2023-05-04T00:54:13.075Z,101264.34
2023-05-04T00:56:43.526Z,101266.03
2023-05-04T00:59:13.960Z,101268.88
2023-05-04T01:01:42.432Z,101270.28
2023-05-04T01:04:11.423Z,101271.84
2023-05-04T01:06:48.183Z,101273.69
2023-05-04T01:09:28.584Z,101268.34
2023-05-04T01:12:14.133Z,101272.09
2023-05-04T01:14:43.958Z,101266.00
2023-05-04T01:17:12.155Z,101261.91
2023-05-04T01:19:40.553Z,101265.41
2023-05-04T01:22:08.513Z,101266.69
2023-05-04T01:24:37.153Z,101264.94
2023-05-04T01:27:42.529Z,101269.19
2023-05-04T01:30:26.747Z,101260.91
2023-05-04T01:32:55.249Z,101266.69
2023-05-04T01:35:23.880Z,101263.78
2023-05-04T01:37:51.739Z,101261.53
2023-05-04T01:40:19.973Z,101259.81
2023-05-04T01:42:47.837Z,101256.44
2023-05-04T01:45:16.179Z,101261.06
2023-05-04T01:47:44.474Z,101257.41
2023-05-04T01:50:12.759Z,101268.59
2023-05-04T01:52:40.640Z,101262.00
2023-05-04T01:55:09.459Z,101269.38
2023-05-04T01:57:37.410Z,101262.72
2023-05-04T02:00:06.536Z,101263.72
2023-05-04T02:02:46.868Z,101264.78
2023-05-04T02:05:19.526Z,101257.44
2023-05-04T02:07:47.579Z,101263.56
2023-05-04T02:10:16.309Z,101260.97
2023-05-04T02:12:44.350Z,101259.94
2023-05-04T02:15:12.898Z,101258.72
2023-05-04T02:17:41.017Z,101260.72
2023-05-04T02:20:09.904Z,101266.97
2023-05-04T02:22:37.830Z,101257.94
2023-05-04T02:25:07.892Z,101255.28
2023-05-04T02:27:38.010Z,101261.50
2023-05-04T02:30:07.668Z,101257.38
2023-05-04T02:32:36.830Z,101258.09
2023-05-04T02:35:05.561Z,101251.19
2023-05-04T02:37:33.479Z,101258.44
2023-05-04T02:40:04.683Z,101256.91
2023-05-04T02:42:32.749Z,101249.09
2023-05-04T02:45:01.100Z,101247.97
2023-05-04T02:47:29.192Z,101251.69
2023-05-04T02:49:57.541Z,101253.09
2023-05-04T02:52:25.487Z,101254.91
2023-05-04T02:54:54.202Z,101253.13
2023-05-04T02:57:22.162Z,101256.25
2023-05-04T02:59:50.374Z,101256.91
2023-05-04T03:02:18.334Z,101262.72
2023-05-04T03:04:46.670Z,101260.66
2023-05-04T03:07:14.664Z,101259.75
2023-05-04T03:09:44.211Z,101259.31
2023-05-04T03:12:13.846Z,101260.66
2023-05-04T03:14:42.128Z,101260.22
2023-05-04T03:17:10.108Z,101264.66
2023-05-04T03:19:38.591Z,101266.91
2023-05-04T03:22:07.725Z,101267.19
2023-05-04T03:24:37.996Z,101261.97
2023-05-04T03:27:06.036Z,101269.59
2023-05-04T03:29:37.177Z,101272.50
2023-05-04T03:32:05.913Z,101263.56
2023-05-04T03:34:34.490Z,101262.81
2023-05-04T03:37:05.773Z,101265.50
2023-05-04T03:39:34.561Z,101261.06
2023-05-04T03:42:02.822Z,101259.97
2023-05-04T03:44:31.153Z,101261.88
2023-05-04T03:46:59.164Z,101264.91
2023-05-04T03:49:28.031Z,101264.53
2023-05-04T03:51:56.153Z,101259.25
2023-05-04T03:54:24.851Z,101256.97
2023-05-04T03:56:53.246Z,101256.09
2023-05-04T03:59:21.564Z,101256.31
2023-05-04T04:01:49.849Z,101256.75
2023-05-04T04:04:18.123Z,101256.75
2023-05-04T04:06:46.839Z,101256.19
2023-05-04T04:09:16.540Z,101262.94
2023-05-04T04:11:44.647Z,101259.66
2023-05-04T04:14:13.137Z,101260.69
2023-05-04T04:16:41.391Z,101269.16
2023-05-04T04:19:09.924Z,101267.44
2023-05-04T04:21:37.998Z,101268.13
2023-05-04T04:24:06.867Z,101275.78
2023-05-04T04:26:35.444Z,101272.97
2023-05-04T04:29:04.177Z,101274.06
2023-05-04T04:31:32.265Z,101271.81
2023-05-04T04:34:01.267Z,101281.72
2023-05-04T04:36:29.789Z,101277.44
2023-05-04T04:38:58.667Z,101288.13
2023-05-04T04:41:26.844Z,101281.72
2023-05-04T04:43:55.266Z,101283.28
2023-05-04T04:46:23.417Z,101270.28
2023-05-04T04:48:53.748Z,101275.13
2023-05-04T04:51:22.088Z,101279.03
2023-05-04T04:53:51.586Z,101282.72
2023-05-04T04:56:19.860Z,101285.44
2023-05-04T04:58:48.693Z,101285.44
2023-05-04T05:01:18.274Z,101285.22
2023-05-04T05:03:47.319Z,101283.28
2023-05-04T05:06:15.559Z,101288.56
2023-05-04T05:08:44.331Z,101286.44
2023-05-04T05:11:13.318Z,101292.41
2023-05-04T05:13:41.798Z,101296.19
2023-05-04T05:16:09.992Z,101294.41
2023-05-04T05:18:38.577Z,101291.53
2023-05-04T05:21:07.897Z,101292.31
2023-05-04T05:23:36.281Z,101294.09
2023-05-04T05:26:04.410Z,101295.91
2023-05-04T05:28:33.998Z,101293.44
2023-05-04T05:31:02.216Z,101290.94
2023-05-04T05:33:30.733Z,101295.63
2023-05-04T05:35:58.909Z,101290.44
2023-05-04T05:38:27.727Z,101287.69
2023-05-04T05:40:55.900Z,101287.31
2023-05-04T05:43:24.407Z,101287.19
2023-05-04T05:45:52.716Z,101293.81
2023-05-04T05:48:21.198Z,101292.41
2023-05-04T05:50:49.332Z,101293.38
2023-05-04T05:53:18.288Z,101297.16
2023-05-04T05:55:47.488Z,101305.72
2023-05-04T05:58:15.975Z,101295.25
2023-05-04T06:00:44.129Z,101292.59
2023-05-04T06:03:12.612Z,101297.63
2023-05-04T06:05:40.918Z,101295.94
2023-05-04T06:08:09.626Z,101292.94
2023-05-04T06:10:37.745Z,101297.31
2023-05-04T06:13:06.241Z,101292.81
2023-05-04T06:15:35.448Z,101294.53
2023-05-04T06:18:04.188Z,101285.16
2023-05-04T06:20:32.540Z,101279.84
2023-05-04T06:23:00.937Z,101287.13
2023-05-04T06:25:29.140Z,101286.22
2023-05-04T06:27:57.589Z,101290.53
2023-05-04T06:30:25.829Z,101284.59
2023-05-04T06:32:54.464Z,101286.50
2023-05-04T06:35:22.624Z,101278.13
2023-05-04T06:40:25.592Z,101283.47
2023-05-04T06:42:54.162Z,101285.97
2023-05-04T06:45:22.348Z,101288.53
2023-05-04T06:47:51.034Z,101287.88
2023-05-04T06:50:19.340Z,101291.56
2023-05-04T06:52:47.774Z,101289.47
2023-05-04T06:55:15.876Z,101292.81
2023-05-04T06:57:44.313Z,101297.41
2023-05-04T07:00:12.896Z,101295.28
2023-05-04T07:02:41.652Z,101296.78
2023-05-04T07:05:10.566Z,101300.53
2023-05-04T07:07:39.214Z,101305.94
2023-05-04T07:10:07.843Z,101300.56
2023-05-04T07:12:36.362Z,101301.06
2023-05-04T07:15:04.818Z,101307.69
2023-05-04T07:17:33.366Z,101297.81
2023-05-04T07:20:03.845Z,101305.56
2023-05-04T07:22:33.405Z,101300.38
2023-05-04T07:25:01.971Z,101298.91
2023-05-04T07:27:30.842Z,101299.50
2023-05-04T07:29:58.929Z,101293.56
2023-05-04T07:32:27.792Z,101293.47
2023-05-04T07:34:56.707Z,101293.75
2023-05-04T07:37:25.192Z,101294.66
2023-05-04T07:39:53.337Z,101297.16
2023-05-04T07:42:24.082Z,101283.84
2023-05-04T07:44:52.720Z,101287.63
2023-05-04T07:47:21.272Z,101292.72
2023-05-04T07:49:49.424Z,101293.63
2023-05-04T07:52:17.913Z,101290.41
2023-05-04T07:54:46.047Z,101290.00
2023-05-04T07:57:14.531Z,101284.03
2023-05-04T07:59:42.678Z,101290.78
2023-05-04T08:02:11.894Z,101283.28
2023-05-04T08:04:40.133Z,101284.75
2023-05-04T08:07:08.606Z,101285.66
2023-05-04T08:09:36.522Z,101285.75
2023-05-04T08:12:04.937Z,101288.22
2023-05-04T08:14:34.142Z,101288.09
2023-05-04T08:17:03.232Z,101288.63
2023-05-04T08:19:31.323Z,101286.94
2023-05-04T08:22:00.774Z,101294.63
2023-05-04T08:24:28.644Z,101293.75
2023-05-04T08:27:07.255Z,101291.75
2023-05-04T08:29:38.016Z,101301.53
2023-05-04T08:32:06.468Z,101296.69
2023-05-04T08:34:34.682Z,101300.19
2023-05-04T08:37:02.862Z,101300.66
2023-05-04T08:39:30.804Z,101305.88
2023-05-04T08:41:59.227Z,101299.41
2023-05-04T08:44:27.238Z,101300.75
2023-05-04T08:46:57.444Z,101309.97
2023-05-04T08:49:25.272Z,101312.75
2023-05-04T08:51:53.557Z,101306.69
2023-05-04T08:54:22.763Z,101308.56
2023-05-04T08:56:55.467Z,101297.22
2023-05-04T08:59:25.615Z,101319.59
2023-05-04T09:01:57.729Z,101307.13
2023-05-04T09:04:29.352Z,101306.59
2023-05-04T09:06:58.845Z,101312.22
2023-05-04T09:09:29.490Z,101297.59
2023-05-04T09:11:59.329Z,101309.31
2023-05-04T09:14:34.814Z,101312.84
2023-05-04T09:17:04.391Z,101298.44
2023-05-04T09:19:35.629Z,101302.50
2023-05-04T09:22:15.246Z,101300.16
2023-05-04T09:24:43.724Z,101299.41
2023-05-04T09:27:13.501Z,101293.44
2023-05-04T09:29:42.563Z,101302.47
2023-05-04T09:32:14.413Z,101296.16
2023-05-04T09:34:52.709Z,101292.56
2023-05-04T09:37:22.341Z,101299.22
2023-05-04T09:39:55.756Z,101297.84
2023-05-04T09:42:24.940Z,101294.00
2023-05-04T09:45:04.839Z,101290.63
2023-05-04T09:47:37.012Z,101291.94
2023-05-04T09:50:20.787Z,101292.59
2023-05-04T09:52:50.668Z,101292.97
2023-05-04T09:55:20.163Z,101289.81
2023-05-04T09:57:49.671Z,101284.19
2023-05-04T10:00:19.279Z,101289.56
2023-05-04T10:02:49.132Z,101282.97
2023-05-04T10:05:18.824Z,101282.94
2023-05-04T10:07:47.449Z,101286.75
2023-05-04T10:10:15.638Z,101279.06
2023-05-04T10:12:45.237Z,101283.69
2023-05-04T10:15:15.122Z,101271.28
2023-05-04T10:18:00.326Z,101270.84
2023-05-04T10:20:33.950Z,101267.91
2023-05-04T10:23:30.404Z,101268.63
2023-05-04T10:26:16.512Z,101271.81
2023-05-04T10:29:28.730Z,101254.53
2023-05-04T10:31:57.146Z,101255.03
2023-05-04T10:34:28.498Z,101247.66
2023-05-04T10:36:57.367Z,101253.47
2023-05-04T10:39:27.690Z,101252.34
2023-05-04T10:42:07.997Z,101251.16
2023-05-04T10:44:49.628Z,101239.72
2023-05-04T10:47:32.738Z,101247.63
2023-05-04T10:50:02.454Z,101248.44
2023-05-04T10:52:32.305Z,101228.94
2023-05-04T10:55:02.128Z,101235.41
2023-05-04T10:57:30.675Z,101234.25
2023-05-04T10:59:59.471Z,101231.66
2023-05-04T11:02:30.972Z,101226.31
2023-05-04T11:05:07.261Z,101230.34
2023-05-04T11:07:39.982Z,101231.66
2023-05-04T11:10:20.542Z,101219.97
2023-05-04T11:12:48.822Z,101215.63
2023-05-04T11:15:18.125Z,101210.97
2023-05-04T11:17:53.165Z,101219.47
2023-05-04T11:20:26.613Z,101224.31
2023-05-04T11:22:55.123Z,101213.13
2023-05-04T11:25:30.957Z,101211.25
2023-05-04T11:27:59.032Z,101224.50
2023-05-04T11:30:36.826Z,101213.53
2023-05-04T11:33:15.640Z,101212.63
2023-05-04T11:35:45.327Z,101218.63
2023-05-04T11:38:20.351Z,101209.28
2023-05-04T11:40:48.762Z,101205.75
2023-05-04T11:43:17.713Z,101207.22
2023-05-04T11:45:48.701Z,101203.75
2023-05-04T11:48:18.754Z,101207.75
2023-05-04T11:50:48.208Z,101194.94
2023-05-04T11:53:21.938Z,101195.25
2023-05-04T11:55:52.501Z,101195.31
2023-05-04T11:58:27.268Z,101197.69
2023-05-04T12:00:57.450Z,101189.06
2023-05-04T12:03:44.018Z,101189.56
2023-05-04T12:06:34.124Z,101192.63
2023-05-04T12:09:04.979Z,101191.50
2023-05-04T12:11:35.939Z,101189.41
2023-05-04T12:14:05.464Z,101185.72
2023-05-04T12:16:34.622Z,101191.00
2023-05-04T12:19:07.247Z,101182.19
2023-05-04T12:21:36.307Z,101180.97
2023-05-04T12:24:05.722Z,101173.41
2023-05-04T12:26:34.154Z,101174.63
2023-05-04T12:29:02.117Z,101169.81
2023-05-04T12:31:30.667Z,101181.06
2023-05-04T12:33:58.657Z,101169.34
2023-05-04T12:36:27.229Z,101171.78
2023-05-04T12:38:55.152Z,101175.25
2023-05-04T12:41:23.565Z,101161.41
2023-05-04T12:43:51.548Z,101163.69
2023-05-04T12:46:22.529Z,101158.91
2023-05-04T12:48:50.917Z,101152.66
2023-05-04T12:51:19.193Z,101167.16
2023-05-04T12:53:47.245Z,101163.81
2023-05-04T12:56:15.407Z,101160.97
2023-05-04T12:58:43.508Z,101154.78
2023-05-04T13:01:12.198Z,101173.88
2023-05-04T13:03:40.412Z,101156.22
2023-05-04T13:06:09.307Z,101148.53
2023-05-04T13:08:37.289Z,101147.59
2023-05-04T13:11:05.659Z,101154.28
2023-05-04T13:13:34.997Z,101149.16
2023-05-04T13:16:03.381Z,101139.25
2023-05-04T13:18:31.293Z,101139.50
2023-05-04T13:20:59.896Z,101126.34
2023-05-04T13:23:27.830Z,101122.25
2023-05-04T13:25:56.086Z,101125.06
2023-05-04T13:28:24.020Z,101128.03
2023-05-04T13:30:52.329Z,101123.00
2023-05-04T13:33:28.695Z,101120.22
2023-05-04T13:35:58.898Z,101108.22
2023-05-04T13:38:27.332Z,101113.03
2023-05-04T13:40:56.337Z,101109.66
2023-05-04T13:43:25.065Z,101092.81
2023-05-04T13:45:53.572Z,101105.41
2023-05-04T13:48:21.455Z,101093.06
2023-05-04T13:50:49.737Z,101098.69
2023-05-04T13:53:17.687Z,101091.72
2023-05-04T13:55:46.285Z,101094.00
2023-05-04T13:58:14.167Z,101087.22
2023-05-04T14:00:43.506Z,101085.38
2023-05-04T14:03:11.801Z,101089.03
2023-05-04T14:05:40.248Z,101088.84
2023-05-04T14:08:08.177Z,101086.91
2023-05-04T14:10:37.639Z,101081.72
2023-05-04T14:13:05.903Z,101078.31
2023-05-04T14:15:34.518Z,101075.31
2023-05-04T14:18:03.128Z,101073.47
2023-05-04T14:20:32.410Z,101075.53
2023-05-04T14:23:00.405Z,101073.84
2023-05-04T14:25:28.778Z,101069.69
2023-05-04T14:27:56.783Z,101076.50
2023-05-04T14:30:26.693Z,101059.41
2023-05-04T14:32:56.011Z,101065.75
2023-05-04T14:35:24.792Z,101068.81
2023-05-04T14:37:53.551Z,101061.69
2023-05-04T14:40:21.925Z,101057.16
2023-05-04T14:42:49.922Z,101066.31
2023-05-04T14:45:18.354Z,101049.47
2023-05-04T14:47:46.400Z,101044.63
2023-05-04T14:50:14.687Z,101047.22
2023-05-04T14:52:43.064Z,101046.41
2023-05-04T14:55:11.767Z,101037.53
2023-05-04T14:57:39.755Z,101034.06
2023-05-04T15:00:09.583Z,101040.34
2023-05-04T15:02:41.731Z,101045.06
2023-05-04T15:05:12.720Z,101042.41
2023-05-04T15:07:40.718Z,101032.28
2023-05-04T15:10:10.601Z,101035.03
2023-05-04T15:12:40.058Z,101033.41
2023-05-04T15:15:09.002Z,101028.44
2023-05-04T15:17:37.029Z,101014.19
2023-05-04T15:20:06.920Z,101021.25
2023-05-04T15:22:35.302Z,101019.03
2023-05-04T15:25:04.343Z,101024.97
2023-05-04T15:27:32.220Z,101025.44
2023-05-04T15:30:00.662Z,101025.72
2023-05-04T15:32:28.540Z,101026.53
2023-05-04T15:35:04.467Z,101024.34
2023-05-04T15:37:33.009Z,101013.75
2023-05-04T15:40:02.352Z,101016.09
2023-05-04T15:42:30.805Z,101021.31
2023-05-04T15:44:59.043Z,101019.69
2023-05-04T15:47:26.984Z,101014.78
2023-05-04T15:49:56.208Z,101006.22
2023-05-04T15:52:24.201Z,101003.22
2023-05-04T15:54:52.465Z,100999.69
2023-05-04T15:57:20.383Z,101001.97
2023-05-04T15:59:50.321Z,101000.13
2023-05-04T16:02:18.237Z,100997.91
2023-05-04T16:04:46.586Z,101001.97
2023-05-04T16:07:15.020Z,100993.16
2023-05-04T16:09:43.468Z,101002.84
2023-05-04T16:12:11.389Z,100998.44
2023-05-04T16:14:40.881Z,100999.03
2023-05-04T16:17:09.583Z,100998.81
2023-05-04T16:19:37.878Z,101005.31
2023-05-04T16:22:05.910Z,100998.69
2023-05-04T16:24:34.650Z,100999.63
2023-05-04T16:27:03.587Z,101001.19
2023-05-04T16:29:31.871Z,100992.81
2023-05-04T16:31:59.914Z,100995.22
2023-05-04T16:34:28.353Z,100994.09
2023-05-04T16:36:56.392Z,100990.88
2023-05-04T16:39:30.529Z,100987.88
2023-05-04T16:41:58.975Z,100993.94
2023-05-04T16:44:27.354Z,100986.72
2023-05-04T16:46:55.575Z,100991.63
2023-05-04T16:49:24.131Z,100996.25
2023-05-04T16:51:55.915Z,100993.66
2023-05-04T16:54:24.691Z,100978.31
2023-05-04T16:56:53.011Z,100984.63
2023-05-04T16:59:21.412Z,100982.06
2023-05-04T17:01:49.562Z,100997.13
2023-05-04T17:04:18.353Z,100999.41
2023-05-04T17:06:46.434Z,101002.09
2023-05-04T17:09:14.744Z,100994.44
2023-05-04T17:11:42.873Z,100995.88
2023-05-04T17:14:11.413Z,100994.31
2023-05-04T17:16:39.696Z,101001.50
2023-05-04T17:19:10.766Z,101001.69
2023-05-04T17:21:39.349Z,100991.34
2023-05-04T17:24:07.902Z,100985.41
2023-05-04T17:26:35.938Z,100989.78
2023-05-04T17:29:04.829Z,100988.72
2023-05-04T17:31:32.854Z,100986.66
2023-05-04T17:34:01.472Z,100992.72
2023-05-04T17:36:29.684Z,100997.63
2023-05-04T17:38:58.614Z,101001.16
2023-05-04T17:41:26.906Z,101003.75
2023-05-04T17:43:56.415Z,101007.78
2023-05-04T17:46:25.250Z,101016.97
2023-05-04T17:48:55.024Z,101005.81
2023-05-04T17:51:23.234Z,101007.53
2023-05-04T17:53:51.674Z,101004.44
2023-05-04T17:56:21.694Z,101002.06
2023-05-04T17:58:50.012Z,101011.03
2023-05-04T18:01:18.090Z,101021.91
2023-05-04T18:03:46.783Z,101021.16
2023-05-04T18:06:15.093Z,101025.09
2023-05-04T18:08:43.483Z,101016.09
2023-05-04T18:11:12.444Z,101030.84
2023-05-04T18:13:41.071Z,101032.88
2023-05-04T18:16:09.266Z,101038.28
2023-05-04T18:18:37.904Z,101038.69
2023-05-04T18:21:05.953Z,101044.56
2023-05-04T18:23:34.323Z,101046.91
2023-05-04T18:26:02.395Z,101046.91
2023-05-04T18:28:31.039Z,101053.50
2023-05-04T18:30:59.146Z,101048.44
2023-05-04T18:33:27.634Z,101051.19
2023-05-04T18:35:55.658Z,101053.91
2023-05-04T18:38:26.524Z,101057.03
2023-05-04T18:40:54.582Z,101058.16
2023-05-04T18:43:22.993Z,101059.75
2023-05-04T18:45:51.098Z,101062.47
2023-05-04T18:48:19.523Z,101065.56
2023-05-04T18:50:57.343Z,101074.53
2023-05-04T18:53:26.734Z,101072.59
2023-05-04T18:56:05.223Z,101079.59
2023-05-04T18:58:34.457Z,101088.06
2023-05-04T19:01:02.854Z,101087.28
2023-05-04T19:03:31.294Z,101086.53
2023-05-04T19:05:59.348Z,101092.34
2023-05-04T19:08:27.654Z,101091.94
2023-05-04T19:10:59.412Z,101100.53
2023-05-04T19:13:28.586Z,101098.97
2023-05-04T19:15:56.732Z,101105.25
2023-05-04T19:18:25.201Z,101106.34
2023-05-04T19:20:54.762Z,101123.06
2023-05-04T19:23:23.149Z,101126.16
2023-05-04T19:25:51.388Z,101123.38
2023-05-04T19:28:20.342Z,101127.72
2023-05-04T19:30:49.468Z,101127.69
2023-05-04T19:33:18.020Z,101139.63
2023-05-04T19:35:46.300Z,101143.09
2023-05-04T19:38:14.884Z,101148.56
2023-05-04T19:40:43.257Z,101152.31
2023-05-04T19:43:11.598Z,101149.91
2023-05-04T19:45:40.032Z,101150.56
2023-05-04T19:48:08.528Z,101163.34
2023-05-04T19:50:36.511Z,101159.53
2023-05-04T19:53:04.915Z,101155.75
2023-05-04T19:55:33.350Z,101158.88
2023-05-04T19:58:02.465Z,101171.25
2023-05-04T20:00:31.269Z,101170.06
2023-05-04T20:02:59.770Z,101159.19
2023-05-04T20:05:27.896Z,101161.13
2023-05-04T20:07:56.736Z,101156.47
2023-05-04T20:10:24.820Z,101160.03
2023-05-04T20:12:53.262Z,101163.84
2023-05-04T20:15:21.732Z,101169.06
2023-05-04T20:17:50.168Z,101171.38
2023-05-04T20:20:20.628Z,101157.31
2023-05-04T20:22:52.587Z,101163.84
2023-05-04T20:25:20.827Z,101168.59
2023-05-04T20:27:49.423Z,101177.09
2023-05-04T20:30:18.185Z,101180.94
2023-05-04T20:32:48.609Z,101174.28
2023-05-04T20:35:17.339Z,101171.94
2023-05-04T20:37:45.804Z,101173.75
2023-05-04T20:40:16.813Z,101174.84
2023-05-04T20:42:45.101Z,101180.19
2023-05-04T20:45:13.534Z,101174.38
2023-05-04T20:47:42.906Z,101176.88
2023-05-04T20:50:12.201Z,101170.69
2023-05-04T20:52:40.478Z,101167.41
2023-05-04T20:55:09.391Z,101165.31
2023-05-04T20:57:37.734Z,101172.78
2023-05-04T21:00:07.285Z,101168.53
2023-05-04T21:02:36.234Z,101178.59
2023-05-04T21:05:04.760Z,101168.66
2023-05-04T21:07:33.286Z,101173.16
2023-05-04T21:10:01.317Z,101171.72
2023-05-04T21:12:30.229Z,101166.63
2023-05-04T21:14:59.049Z,101159.66
2023-05-04T21:17:27.634Z,101165.88
2023-05-04T21:19:55.626Z,101166.06
2023-05-04T21:22:23.930Z,101158.69
2023-05-04T21:24:52.103Z,101161.25
2023-05-04T21:27:20.367Z,101149.59
2023-05-04T21:29:48.383Z,101146.47
2023-05-04T21:32:16.752Z,101146.69
2023-05-04T21:34:44.728Z,101153.88
2023-05-04T21:37:13.343Z,101157.50
2023-05-04T21:39:41.554Z,101154.53
2023-05-04T21:42:10.044Z,101154.13
2023-05-04T21:44:38.178Z,101155.09
2023-05-04T21:47:07.430Z,101156.28
2023-05-04T21:50:22.454Z,101165.59
2023-05-04T21:52:51.134Z,101166.31
2023-05-04T21:55:19.923Z,101165.47
2023-05-04T21:57:48.927Z,101153.38
2023-05-04T22:00:20.719Z,101160.72
2023-05-04T22:02:49.309Z,101160.38
2023-05-04T22:05:22.369Z,101157.59
2023-05-04T22:07:51.028Z,101158.72
2023-05-04T22:10:19.195Z,101171.94
2023-05-04T22:12:47.919Z,101166.63
2023-05-04T22:15:16.635Z,101174.72
2023-05-04T22:17:45.636Z,101179.31
2023-05-04T22:20:14.038Z,101180.75
2023-05-04T22:22:42.676Z,101182.56
2023-05-04T22:25:11.302Z,101184.00
2023-05-04T22:27:39.956Z,101194.13
2023-05-04T22:30:08.948Z,101189.78
2023-05-04T22:32:38.291Z,101190.72
2023-05-04T22:35:06.841Z,101189.69
2023-05-04T22:37:35.501Z,101193.09
2023-05-04T22:40:07.715Z,101190.38
2023-05-04T22:42:36.953Z,101193.06
2023-05-04T22:45:05.623Z,101197.72
2023-05-04T22:47:34.230Z,101199.34
2023-05-04T22:50:02.485Z,101193.97
2023-05-04T22:52:31.442Z,101192.16
2023-05-04T22:54:59.613Z,101193.97
2023-05-04T22:57:28.292Z,101193.13
2023-05-04T22:59:56.717Z,101196.88
2023-05-04T23:02:25.695Z,101191.44
2023-05-04T23:04:54.198Z,101194.28
2023-05-04T23:07:22.784Z,101193.13
2023-05-04T23:09:50.992Z,101189.19
2023-05-04T23:12:19.842Z,101193.91
2023-05-04T23:14:52.597Z,101199.03
2023-05-04T23:17:24.576Z,101194.38
2023-05-04T23:19:52.805Z,101198.94
2023-05-04T23:22:21.662Z,101198.44
2023-05-04T23:24:49.849Z,101198.16
2023-05-04T23:27:18.936Z,101195.44
2023-05-04T23:29:47.111Z,101195.28
2023-05-04T23:32:15.942Z,101185.13
2023-05-04T23:34:44.170Z,101188.13
2023-05-04T23:37:12.670Z,101186.47
2023-05-04T23:39:41.029Z,101187.97
2023-05-04T23:42:09.451Z,101188.50
2023-05-04T23:44:37.705Z,101179.84
2023-05-04T23:47:06.380Z,101179.34
2023-05-04T23:49:34.625Z,101182.78
2023-05-04T23:52:03.179Z,101180.22
2023-05-04T23:54:32.004Z,101181.66
2023-05-04T23:57:00.782Z,101185.84
2023-05-04T23:59:28.951Z,101177.22
